Time;durP1;ratioP1;P1;durP2;ratioP2;P2;SDS_P1;SDS_P2;PMS_P1;PMS_P2;Temp;Humidity;BMP_temperature;BMP_pressure;BME280_temperature;BME280_humidity;BME280_pressure;Samples;Min_cycle;Max_cycle;Signal;HPM_P1;HPM_P2
2023/10/02 00:00:19;;;;;;;3.00;1.80;;;17.60;99.90;;;;;;4990970;28;20183;-75
2023/10/02 00:02:45;;;;;;;3.92;2.53;;;17.40;99.90;;;;;;4980002;28;20167;-74
2023/10/02 00:05:11;;;;;;;4.32;2.28;;;17.70;99.90;;;;;;4991557;28;20278;-74
2023/10/02 00:07:42;;;;;;;2.92;1.10;;;17.70;99.90;;;;;;4979834;28;20215;-75
2023/10/02 00:10:08;;;;;;;2.05;0.95;;;17.60;99.90;;;;;;4972244;28;20176;-75
2023/10/02 00:12:34;;;;;;;2.38;1.10;;;17.70;99.90;;;;;;4972341;28;20179;-74
2023/10/02 00:15:12;;;;;;;2.78;1.15;;;17.70;99.90;;;;;;4970936;28;20194;-74
2023/10/02 00:17:43;;;;;;;2.08;1.20;;;17.80;99.90;;;;;;4972113;28;20596;-74
2023/10/02 00:20:21;;;;;;;2.58;1.10;;;17.70;99.90;;;;;;4984615;28;20174;-74
2023/10/02 00:22:47;;;;;;;2.92;0.98;;;17.60;99.90;;;;;;4991512;28;20181;-75
2023/10/02 00:25:19;;;;;;;1.95;0.82;;;17.50;99.90;;;;;;4991619;28;20198;-74
2023/10/02 00:27:46;;;;;;;1.50;0.70;;;17.50;99.90;;;;;;4991477;28;20226;-74
2023/10/02 00:30:13;;;;;;;1.13;0.70;;;17.50;99.90;;;;;;4991131;28;20646;-75
2023/10/02 00:32:41;;;;;;;2.47;0.70;;;17.50;99.90;;;;;;4991420;28;20183;-74
2023/10/02 00:35:10;;;;;;;2.25;1.00;;;17.40;99.90;;;;;;4991331;28;20653;-74
2023/10/02 00:37:51;;;;;;;1.42;0.65;;;17.50;99.90;;;;;;4991260;28;20210;-74
2023/10/02 00:40:26;;;;;;;1.33;0.75;;;17.60;99.90;;;;;;4989927;28;20254;-75
2023/10/02 00:43:33;;;;;;;2.10;0.93;;;17.40;99.90;;;;;;4989905;28;20230;-75
2023/10/02 00:45:49;;;;;;;1.15;0.73;;;17.40;99.90;;;;;;4991084;28;20274;-74
2023/10/02 00:48:28;;;;;;;2.30;0.60;;;17.50;99.90;;;;;;4991454;28;20265;-74
2023/10/02 00:51:05;;;;;;;2.50;0.80;;;17.50;99.90;;;;;;4990862;28;20214;-74
2023/10/02 00:53:45;;;;;;;3.90;0.80;;;17.50;99.90;;;;;;4989878;28;20651;-74
2023/10/02 00:56:23;;;;;;;2.63;0.70;;;17.70;99.90;;;;;;4990966;28;20229;-74
2023/10/02 00:59:00;;;;;;;2.63;1.00;;;17.50;99.90;;;;;;4990936;28;20203;-74
2023/10/02 01:01:27;;;;;;;3.60;0.88;;;17.50;99.90;;;;;;4989944;28;20174;-74
2023/10/02 01:04:09;;;;;;;1.85;0.75;;;17.40;99.90;;;;;;4984234;28;20208;-74
2023/10/02 01:10:06;;;;;;;2.17;0.80;;;17.30;99.90;;;;;;4960064;28;20275;-75
2023/10/02 01:12:38;;;;;;;2.28;1.00;;;17.40;99.90;;;;;;4950030;29;20200;-73
2023/10/02 01:15:09;;;;;;;1.58;0.82;;;17.70;99.90;;;;;;4964410;28;20184;-73
2023/10/02 01:17:37;;;;;;;1.88;1.00;;;17.40;99.90;;;;;;4971794;28;20254;-74
2023/10/02 01:20:09;;;;;;;3.00;1.17;;;17.10;99.90;;;;;;4993226;28;20172;-73
2023/10/02 01:22:42;;;;;;;3.72;1.23;;;17.40;99.90;;;;;;4979596;28;20259;-74
2023/10/02 01:25:14;;;;;;;4.80;1.30;;;17.30;99.90;;;;;;4986581;28;20261;-74
2023/10/02 01:27:47;;;;;;;3.35;1.17;;;17.40;99.90;;;;;;4994655;28;20666;-74
2023/10/02 01:30:16;;;;;;;1.98;0.82;;;17.30;99.90;;;;;;4994226;28;20184;-74
2023/10/02 01:33:15;;;;;;;3.90;0.98;;;17.30;99.90;;;;;;4994477;28;20175;-74
2023/10/02 01:35:51;;;;;;;2.10;1.13;;;17.30;99.90;;;;;;4994165;28;20186;-74
2023/10/02 01:38:30;;;;;;;2.58;1.42;;;17.30;99.90;;;;;;4975007;28;20175;-74
2023/10/02 01:41:03;;;;;;;2.53;1.05;;;17.30;99.90;;;;;;4974690;28;20258;-74
2023/10/02 01:43:32;;;;;;;4.70;1.63;;;17.30;99.90;;;;;;4974489;28;20285;-74
2023/10/02 01:46:00;;;;;;;3.65;1.10;;;17.20;99.90;;;;;;4974793;28;20210;-74
2023/10/02 01:48:44;;;;;;;3.63;1.17;;;17.20;99.90;;;;;;4974487;28;20215;-74
2023/10/02 01:51:25;;;;;;;2.25;1.10;;;17.20;99.90;;;;;;4974442;28;20171;-74
2023/10/02 01:53:51;;;;;;;1.90;1.00;;;17.00;99.90;;;;;;4974275;28;20176;-75
2023/10/02 01:56:18;;;;;;;2.22;1.10;;;17.30;99.90;;;;;;4974578;28;20168;-74
2023/10/02 01:58:46;;;;;;;1.30;0.75;;;17.20;99.90;;;;;;4985971;28;20191;-75
2023/10/02 02:01:12;;;;;;;1.92;1.00;;;17.50;99.90;;;;;;4994064;28;20209;-74
2023/10/02 02:03:40;;;;;;;2.63;1.02;;;17.20;99.90;;;;;;4993802;28;20221;-74
2023/10/02 02:06:10;;;;;;;1.70;1.00;;;17.10;99.90;;;;;;4993881;28;20171;-74
2023/10/02 02:08:43;;;;;;;3.78;1.00;;;17.30;99.90;;;;;;4989735;28;20211;-74
2023/10/02 02:11:20;;;;;;;4.53;1.40;;;17.10;99.90;;;;;;4993580;28;20669;-74
2023/10/02 02:13:51;;;;;;;3.60;1.38;;;17.20;99.90;;;;;;4983022;28;20175;-74
2023/10/02 02:16:30;;;;;;;4.82;1.45;;;16.90;99.90;;;;;;4984446;28;20182;-74
2023/10/02 02:18:58;;;;;;;2.80;1.30;;;17.20;99.90;;;;;;4959409;28;20172;-75
2023/10/02 02:21:24;;;;;;;2.78;1.50;;;17.10;99.90;;;;;;4978628;28;20180;-74
2023/10/02 02:24:11;;;;;;;3.25;1.45;;;17.20;99.90;;;;;;4993641;28;20171;-74
2023/10/02 02:26:39;;;;;;;6.45;1.75;;;17.20;99.90;;;;;;4993577;28;20186;-73
2023/10/02 02:29:16;;;;;;;3.88;1.75;;;17.20;99.90;;;;;;4991140;28;20211;-74
2023/10/02 02:31:42;;;;;;;9.90;3.67;;;17.20;99.90;;;;;;4992870;28;20171;-75
2023/10/02 02:34:17;;;;;;;6.18;2.75;;;17.20;99.90;;;;;;4984059;28;20183;-74
2023/10/02 02:36:47;;;;;;;5.38;2.35;;;17.10;99.90;;;;;;4973865;28;20182;-74
2023/10/02 02:39:16;;;;;;;5.22;2.42;;;17.20;99.90;;;;;;4973925;28;20179;-74
2023/10/02 02:41:44;;;;;;;8.85;2.10;;;17.10;99.90;;;;;;4973639;28;20180;-73
2023/10/02 02:44:39;;;;;;;7.35;3.00;;;17.20;99.90;;;;;;4973797;28;20173;-73
2023/10/02 02:47:09;;;;;;;8.70;4.20;;;17.20;99.90;;;;;;4973683;28;20639;-74
2023/10/02 02:52:26;;;;;;;16.90;6.13;;;17.10;99.90;;;;;;4973704;28;20172;-73
2023/10/02 02:54:58;;;;;;;12.25;5.78;;;17.00;99.90;;;;;;4974164;28;20176;-73
2023/10/02 02:57:26;;;;;;;14.25;6.55;;;17.00;99.90;;;;;;4992810;28;20175;-73
2023/10/02 03:00:24;;;;;;;19.40;6.93;;;16.90;99.90;;;;;;4974523;28;20183;-73
2023/10/02 03:02:40;;;;;;;15.95;6.95;;;16.90;99.90;;;;;;4987608;28;20229;-73
2023/10/02 03:05:11;;;;;;;19.42;7.20;;;16.90;99.90;;;;;;4976119;28;20176;-73
2023/10/02 03:07:39;;;;;;;14.15;6.68;;;16.90;99.90;;;;;;4972941;28;20675;-73
2023/10/02 03:10:11;;;;;;;15.70;7.25;;;17.00;99.90;;;;;;4975303;28;20183;-74
2023/10/02 03:12:51;;;;;;;16.63;6.70;;;16.90;99.90;;;;;;4981694;28;20171;-73
2023/10/02 03:15:18;;;;;;;13.70;6.47;;;17.00;99.90;;;;;;4992270;28;20190;-73
2023/10/02 03:17:48;;;;;;;14.70;6.95;;;17.00;99.90;;;;;;4988977;28;20168;-73
2023/10/02 03:20:24;;;;;;;17.35;6.78;;;17.00;99.90;;;;;;4972934;28;20168;-73
2023/10/02 03:22:55;;;;;;;17.67;7.10;;;17.00;99.90;;;;;;4973029;28;20545;-73
2023/10/02 03:25:43;;;;;;;15.77;6.40;;;17.00;99.90;;;;;;4971720;28;20244;-72
2023/10/02 03:28:16;;;;;;;10.98;5.53;;;19.30;99.90;;;;;;4986219;28;20662;-73
2023/10/02 03:30:47;;;;;;;13.02;5.97;;;16.90;99.90;;;;;;4971664;28;20176;-73
2023/10/02 03:33:18;;;;;;;14.85;6.13;;;16.90;99.90;;;;;;4978353;28;20566;-73
2023/10/02 03:36:10;;;;;;;15.43;6.43;;;16.90;99.90;;;;;;4984112;28;20172;-73
2023/10/02 03:38:43;;;;;;;16.15;7.07;;;16.90;99.90;;;;;;4991340;28;20197;-72
2023/10/02 03:41:13;;;;;;;12.18;6.63;;;16.90;99.90;;;;;;4990650;28;20223;-72
2023/10/02 03:43:43;;;;;;;14.43;6.55;;;17.00;99.90;;;;;;4991921;28;20272;-72
2023/10/02 03:46:13;;;;;;;14.68;6.63;;;17.00;99.90;;;;;;4991858;28;20187;-73
2023/10/02 03:48:40;;;;;;;15.82;6.40;;;16.90;99.90;;;;;;4991557;28;20285;-73
2023/10/02 03:51:09;;;;;;;13.13;6.57;;;16.90;99.90;;;;;;4990486;28;20174;-72
2023/10/02 03:53:35;;;;;;;16.25;6.03;;;16.90;99.90;;;;;;4991515;28;20274;-73
2023/10/02 03:58:53;;;;;;;8.65;4.78;;;16.90;99.90;;;;;;4977543;28;20250;-72
2023/10/02 04:01:29;;;;;;;12.00;5.22;;;16.90;99.90;;;;;;4992304;28;20172;-72
2023/10/02 04:04:11;;;;;;;10.95;5.35;;;16.90;99.90;;;;;;4983079;28;20171;-72
2023/10/02 04:06:37;;;;;;;11.68;5.05;;;16.90;99.90;;;;;;4972537;28;20176;-72
2023/10/02 04:09:12;;;;;;;13.80;5.43;;;16.90;99.90;;;;;;4972121;28;20218;-72
2023/10/02 04:11:39;;;;;;;11.20;5.22;;;16.90;99.90;;;;;;4972263;28;20207;-72
2023/10/02 04:14:17;;;;;;;7.75;3.90;;;16.90;99.90;;;;;;4971647;28;20168;-72
2023/10/02 04:16:43;;;;;;;9.43;4.30;;;16.90;99.90;;;;;;4979638;28;20167;-72
2023/10/02 04:19:09;;;;;;;10.82;4.90;;;16.80;99.90;;;;;;4991513;28;20194;-72
2023/10/02 04:21:36;;;;;;;10.82;5.43;;;16.90;99.90;;;;;;4991466;28;20511;-72
2023/10/02 04:24:09;;;;;;;14.88;5.28;;;16.80;99.90;;;;;;4991368;28;20175;-73
2023/10/02 04:26:36;;;;;;;11.48;4.85;;;16.80;99.90;;;;;;4991486;28;20182;-72
2023/10/02 04:31:39;;;;;;;14.43;4.85;;;16.80;99.90;;;;;;4991709;28;20210;-72
2023/10/02 04:36:43;;;;;;;10.98;5.05;;;16.80;99.90;;;;;;4991602;28;20170;-72
2023/10/02 04:39:51;;;;;;;11.45;4.93;;;16.80;99.90;;;;;;4991405;28;20265;-73
2023/10/02 04:44:59;;;;;;;11.23;5.40;;;16.80;99.90;;;;;;4982414;28;20277;-72
2023/10/02 04:47:30;;;;;;;10.68;4.88;;;16.70;99.90;;;;;;4991270;28;20202;-72
2023/10/02 04:55:31;;;;;;;11.40;4.90;;;17.00;99.90;;;;;;4995474;28;20229;-72
2023/10/02 04:58:09;;;;;;;15.30;4.82;;;16.80;99.90;;;;;;4994495;28;20159;-74
2023/10/02 05:00:35;;;;;;;13.55;5.38;;;17.60;99.90;;;;;;4986279;28;20237;-72
2023/10/02 05:03:24;;;;;;;13.73;4.70;;;16.50;99.90;;;;;;4975563;28;20176;-73
2023/10/02 05:05:54;;;;;;;9.82;4.63;;;16.50;99.90;;;;;;4990654;28;20221;-73
2023/10/02 05:08:29;;;;;;;10.88;4.60;;;16.80;99.90;;;;;;4994701;28;20238;-72
2023/10/02 05:11:05;;;;;;;13.27;4.78;;;16.60;99.90;;;;;;4994930;28;20175;-74
2023/10/02 05:13:59;;;;;;;10.23;4.07;;;16.50;99.90;;;;;;4993652;28;20182;-72
2023/10/02 05:16:38;;;;;;;13.18;4.65;;;16.60;99.90;;;;;;4992393;28;20172;-73
2023/10/02 05:19:06;;;;;;;10.70;4.72;;;16.60;99.90;;;;;;4975520;28;20179;-74
2023/10/02 05:21:36;;;;;;;10.90;4.53;;;16.50;99.90;;;;;;4975337;28;20243;-74
2023/10/02 05:24:12;;;;;;;11.98;5.07;;;16.50;99.90;;;;;;4975053;28;20211;-74
2023/10/02 05:26:39;;;;;;;11.18;5.03;;;16.50;99.90;;;;;;4975161;28;20627;-73
2023/10/02 05:29:07;;;;;;;13.40;4.65;;;16.50;99.90;;;;;;4974665;28;20211;-73
2023/10/02 05:31:36;;;;;;;13.55;4.70;;;16.50;99.90;;;;;;4975403;28;20179;-73
2023/10/02 05:34:09;;;;;;;12.60;5.05;;;16.50;99.90;;;;;;4975007;28;20251;-73
2023/10/02 05:36:54;;;;;;;11.55;4.55;;;16.50;99.90;;;;;;4975118;28;20251;-73
2023/10/02 05:39:31;;;;;;;10.73;4.40;;;16.40;99.90;;;;;;4974840;28;20184;-73
2023/10/02 05:42:05;;;;;;;9.30;4.30;;;16.30;99.90;;;;;;4973509;28;20211;-73
2023/10/02 05:44:35;;;;;;;13.23;5.05;;;16.40;99.90;;;;;;4974923;28;20224;-73
2023/10/02 05:47:08;;;;;;;12.45;5.07;;;16.40;99.90;;;;;;4974713;28;20639;-73
2023/10/02 05:49:36;;;;;;;10.65;4.68;;;16.40;99.90;;;;;;4974605;28;20274;-73
2023/10/02 05:52:03;;;;;;;10.10;4.50;;;16.50;99.90;;;;;;4974714;28;20176;-73
2023/10/02 05:54:29;;;;;;;10.40;4.97;;;16.50;99.90;;;;;;4989390;28;20701;-73
2023/10/02 05:57:12;;;;;;;12.15;4.22;;;17.70;99.90;;;;;;4994067;28;20206;-73
2023/10/02 05:59:54;;;;;;;7.55;4.15;;;16.50;99.90;;;;;;4992540;28;20380;-74
2023/10/02 06:02:22;;;;;;;11.82;4.32;;;16.50;99.90;;;;;;4994007;28;20654;-73
2023/10/02 06:04:49;;;;;;;11.20;4.65;;;16.50;99.90;;;;;;4993788;28;20168;-74
2023/10/02 06:07:40;;;;;;;13.50;4.45;;;16.40;99.90;;;;;;4993622;28;20214;-74
2023/10/02 06:10:08;;;;;;;10.52;4.07;;;16.50;99.90;;;;;;5010618;28;20182;-73
2023/10/02 06:12:35;;;;;;;11.68;3.83;;;16.50;99.90;;;;;;5012097;28;20175;-73
2023/10/02 06:15:09;;;;;;;10.10;4.22;;;16.50;99.90;;;;;;5011804;28;20181;-71
2023/10/02 06:17:36;;;;;;;9.32;3.90;;;16.50;99.90;;;;;;4993140;28;20185;-71
2023/10/02 06:20:02;;;;;;;10.43;4.28;;;16.40;99.90;;;;;;4990291;28;20186;-71
2023/10/02 06:22:27;;;;;;;9.75;4.30;;;16.50;99.90;;;;;;4980652;28;20191;-71
2023/10/02 06:24:53;;;;;;;9.85;4.32;;;16.50;99.90;;;;;;4992793;28;20171;-71
2023/10/02 06:27:22;;;;;;;11.18;4.50;;;16.50;99.90;;;;;;4976706;28;20184;-72
2023/10/02 06:29:50;;;;;;;10.65;4.18;;;16.60;99.90;;;;;;4986701;28;20183;-72
2023/10/02 06:32:19;;;;;;;9.10;4.35;;;16.50;99.90;;;;;;4993106;28;20237;-72
2023/10/02 06:34:47;;;;;;;12.57;3.85;;;16.50;99.90;;;;;;4993315;28;20198;-73
2023/10/02 06:37:21;;;;;;;9.80;4.30;;;16.60;99.90;;;;;;4993025;28;20631;-73
2023/10/02 06:40:13;;;;;;;11.18;4.55;;;16.60;99.90;;;;;;4972903;28;20186;-73
2023/10/02 06:42:48;;;;;;;10.77;4.30;;;16.50;99.90;;;;;;4991449;28;20227;-72
2023/10/02 06:45:15;;;;;;;9.50;4.22;;;16.40;99.90;;;;;;4993031;28;20183;-74
2023/10/02 06:47:41;;;;;;;11.73;4.65;;;16.50;99.90;;;;;;4993369;28;20211;-74
2023/10/02 06:52:52;;;;;;;12.48;3.88;;;16.50;99.90;;;;;;4993355;28;20761;-74
2023/10/02 06:55:17;;;;;;;9.05;4.22;;;16.50;99.90;;;;;;5002728;28;20206;-74
2023/10/02 06:57:49;;;;;;;11.02;4.35;;;16.50;99.90;;;;;;4991299;28;20171;-74
2023/10/02 07:00:19;;;;;;;10.50;3.75;;;16.40;99.90;;;;;;4976530;28;20176;-74
2023/10/02 07:02:56;;;;;;;9.38;3.72;;;16.60;99.90;;;;;;4974791;28;20697;-74
2023/10/02 07:05:32;;;;;;;9.38;4.30;;;16.60;99.90;;;;;;4990119;28;20242;-74
2023/10/02 07:09:10;;;;;;;10.57;4.13;;;16.70;99.90;;;;;;4980294;28;20715;-74
2023/10/02 07:10:52;;;;;;;11.52;4.57;;;16.60;99.90;;;;;;4985269;28;20180;-74
2023/10/02 07:13:21;;;;;;;9.32;3.97;;;16.60;99.90;;;;;;4975819;28;20176;-75
2023/10/02 07:15:49;;;;;;;11.23;4.10;;;16.60;99.90;;;;;;4972578;28;20658;-74
2023/10/02 07:18:15;;;;;;;12.65;4.10;;;16.50;99.90;;;;;;4972916;28;20255;-74
2023/10/02 07:20:47;;;;;;;12.20;4.00;;;16.70;99.90;;;;;;4977119;28;20255;-73
2023/10/02 07:23:19;;;;;;;10.30;4.60;;;16.90;99.90;;;;;;4972898;28;20725;-74
2023/10/02 07:25:50;;;;;;;14.05;4.65;;;16.50;99.90;;;;;;4972863;28;20172;-74
2023/10/02 07:28:19;;;;;;;10.30;4.15;;;16.80;99.90;;;;;;4971995;28;20207;-73
2023/10/02 07:30:46;;;;;;;8.02;3.78;;;;;;;;;;4973079;28;20230;-74
2023/10/02 07:33:13;;;;;;;10.50;3.60;;;16.80;99.90;;;;;;4983404;28;20175;-74
2023/10/02 07:35:39;;;;;;;13.50;4.00;;;16.80;99.90;;;;;;4991520;28;20666;-74
2023/10/02 07:38:08;;;;;;;12.25;4.20;;;17.00;99.90;;;;;;4988298;28;20202;-74
2023/10/02 07:40:46;;;;;;;11.07;4.25;;;16.90;99.90;;;;;;4990896;28;20325;-74
2023/10/02 07:43:18;;;;;;;13.40;4.10;;;16.90;99.90;;;;;;4978575;28;20274;-74
2023/10/02 07:46:22;;;;;;;10.88;3.88;;;17.00;99.90;;;;;;4972722;28;20226;-75
2023/10/02 07:48:41;;;;;;;9.63;4.40;;;17.10;99.90;;;;;;4970180;28;20219;-74
2023/10/02 07:51:09;;;;;;;10.35;3.92;;;17.20;99.90;;;;;;4977703;28;20239;-74
2023/10/02 07:53:43;;;;;;;10.20;3.95;;;17.20;99.90;;;;;;4989852;28;20187;-74
2023/10/02 07:56:11;;;;;;;11.18;4.13;;;17.20;99.90;;;;;;4991613;28;20187;-75
2023/10/02 07:58:39;;;;;;;9.23;4.03;;;17.30;99.90;;;;;;4991681;28;20627;-74
2023/10/02 08:01:11;;;;;;;10.52;3.67;;;17.20;99.90;;;;;;4986246;28;20180;-74
2023/10/02 08:03:44;;;;;;;10.23;4.28;;;17.20;99.90;;;;;;4988951;28;20206;-74
2023/10/02 08:06:33;;;;;;;11.30;4.50;;;17.20;99.90;;;;;;4990253;28;20591;-74
2023/10/02 08:11:50;;;;;;;11.52;4.32;;;17.20;99.90;;;;;;4991307;28;20536;-75
2023/10/02 08:14:40;;;;;;;11.52;4.90;;;17.30;99.90;;;;;;4991519;28;20167;-74
2023/10/02 08:17:22;;;;;;;10.68;4.65;;;17.30;99.90;;;;;;4990619;28;20167;-75
2023/10/02 08:19:54;;;;;;;11.50;4.57;;;17.20;99.90;;;;;;4970636;28;20229;-74
2023/10/02 08:22:35;;;;;;;11.98;4.68;;;17.20;99.90;;;;;;4971918;28;20187;-74
2023/10/02 08:25:13;;;;;;;8.52;4.63;;;17.30;99.90;;;;;;4970547;28;20184;-75
2023/10/02 08:27:44;;;;;;;11.90;4.78;;;17.40;99.90;;;;;;4971154;28;20208;-73
2023/10/02 08:30:27;;;;;;;8.48;4.32;;;17.40;99.90;;;;;;4971885;28;20172;-73
2023/10/02 08:32:53;;;;;;;12.25;4.50;;;17.50;99.90;;;;;;4980020;28;20222;-73
2023/10/02 08:35:19;;;;;;;12.38;4.65;;;17.50;99.90;;;;;;4991068;28;20179;-74
2023/10/02 08:37:46;;;;;;;15.70;4.55;;;17.50;99.90;;;;;;4991108;28;20195;-73
2023/10/02 08:40:14;;;;;;;11.40;4.53;;;17.50;99.90;;;;;;4978883;28;20290;-75
2023/10/02 08:42:46;;;;;;;13.02;4.57;;;17.60;99.90;;;;;;4987521;28;20215;-74
2023/10/02 08:45:18;;;;;;;9.05;4.63;;;17.70;99.90;;;;;;4991359;28;20182;-72
2023/10/02 08:47:47;;;;;;;14.68;5.07;;;17.70;99.90;;;;;;4991140;28;20262;-74
2023/10/02 08:50:15;;;;;;;11.13;4.93;;;17.80;99.90;;;;;;4987138;28;20258;-74
2023/10/02 08:52:47;;;;;;;12.55;5.22;;;17.80;99.90;;;;;;4990526;28;20206;-73
2023/10/02 08:58:16;;;;;;;15.05;4.88;;;17.80;99.90;;;;;;4990791;28;20190;-73
2023/10/02 09:03:46;;;;;;;12.93;4.72;;;17.90;99.90;;;;;;4971691;28;20187;-74
2023/10/02 09:06:35;;;;;;;13.63;4.45;;;17.90;99.90;;;;;;4971682;28;20734;-75
2023/10/02 09:09:21;;;;;;;13.23;4.85;;;18.00;99.90;;;;;;4971655;28;20207;-74
2023/10/02 09:11:52;;;;;;;14.60;5.03;;;18.00;99.90;;;;;;4971796;28;20246;-74
2023/10/02 09:16:46;;;;;;;11.05;4.65;;;17.90;99.90;;;;;;4971926;28;20226;-75
2023/10/02 09:19:28;;;;;;;8.38;4.10;;;18.60;99.90;;;;;;4971655;28;20180;-75
2023/10/02 09:22:06;;;;;;;9.55;3.63;;;18.20;99.90;;;;;;4974883;28;20647;-75
2023/10/02 09:24:34;;;;;;;13.18;4.07;;;18.70;99.90;;;;;;4971700;28;20175;-74
2023/10/02 09:27:52;;;;;;;8.63;3.60;;;18.80;99.90;;;;;;4971604;28;20258;-74
2023/10/02 09:32:47;;;;;;;15.13;3.92;;;19.00;99.90;;;;;;4981323;28;20177;-74
2023/10/02 09:35:29;;;;;;;12.60;4.25;;;19.00;99.90;;;;;;4983327;28;20207;-74
2023/10/02 09:38:04;;;;;;;10.07;3.97;;;19.20;99.90;;;;;;4989790;28;20172;-75
2023/10/02 09:40:53;;;;;;;10.52;4.18;;;19.20;99.90;;;;;;5012787;28;20170;-74
2023/10/02 09:43:23;;;;;;;12.60;4.28;;;19.30;99.90;;;;;;5013468;28;20313;-74
2023/10/02 09:45:53;;;;;;;10.65;4.05;;;19.30;99.90;;;;;;4999026;28;20175;-74
2023/10/02 09:51:27;;;;;;;12.57;4.35;;;19.70;99.90;;;;;;4989571;28;20266;-75
2023/10/02 09:54:34;;;;;;;12.82;4.40;;;19.80;99.90;;;;;;4982674;28;20175;-75
2023/10/02 09:57:05;;;;;;;9.88;4.15;;;19.30;99.90;;;;;;4973798;28;20555;-75
2023/10/02 09:59:42;;;;;;;11.55;4.75;;;19.50;99.90;;;;;;4973421;28;20297;-75
2023/10/02 10:02:08;;;;;;;14.23;4.55;;;19.40;99.90;;;;;;4973497;28;20219;-75
2023/10/02 10:05:00;;;;;;;12.48;5.38;;;19.10;99.90;;;;;;4981657;28;20594;-75
2023/10/02 10:10:28;;;;;;;18.58;6.30;;;19.10;99.90;;;;;;4974438;28;20271;-75
2023/10/02 10:12:58;;;;;;;15.52;6.20;;;19.10;99.90;;;;;;4978747;28;20250;-74
2023/10/02 10:15:25;;;;;;;17.02;6.45;;;19.60;99.90;;;;;;4988509;28;20176;-74
2023/10/02 10:17:51;;;;;;;13.35;5.90;;;19.60;99.90;;;;;;4986933;28;20243;-74
2023/10/02 10:20:20;;;;;;;18.55;6.00;;;19.50;99.90;;;;;;4994675;28;20171;-75
2023/10/02 10:22:56;;;;;;;15.77;6.90;;;19.50;99.90;;;;;;4994252;28;20175;-75
2023/10/02 10:28:06;;;;;;;15.50;7.07;;;19.40;99.90;;;;;;4993176;28;20301;-74
2023/10/02 10:30:46;;;;;;;16.42;6.35;;;19.40;99.90;;;;;;4993194;28;20171;-74
2023/10/02 10:33:19;;;;;;;18.52;7.07;;;19.40;99.90;;;;;;4988327;28;20232;-74
2023/10/02 10:35:51;;;;;;;20.20;7.13;;;19.20;99.90;;;;;;4974053;28;20624;-74
2023/10/02 10:41:00;;;;;;;15.30;5.90;;;19.30;99.90;;;;;;4973895;28;20263;-73
2023/10/02 10:43:54;;;;;;;14.10;5.78;;;19.30;99.90;;;;;;4973562;28;20652;-74
2023/10/02 10:46:21;;;;;;;20.55;5.80;;;19.50;99.90;;;;;;4983185;28;20175;-75
2023/10/02 10:48:59;;;;;;;19.88;6.25;;;19.20;99.90;;;;;;4988998;28;20206;-74
2023/10/02 10:51:28;;;;;;;19.33;5.63;;;19.20;99.90;;;;;;4977296;28;20172;-75
2023/10/02 10:54:12;;;;;;;19.25;6.35;;;19.40;99.90;;;;;;4991619;28;20186;-76
2023/10/02 10:56:44;;;;;;;18.73;6.40;;;19.30;99.90;;;;;;4992953;28;20195;-74
2023/10/02 10:59:12;;;;;;;16.25;6.05;;;19.60;99.90;;;;;;4997012;28;20217;-73
2023/10/02 11:04:39;;;;;;;15.68;6.70;;;19.20;99.90;;;;;;4991517;28;20250;-74
2023/10/02 11:07:19;;;;;;;22.55;6.82;;;18.90;99.90;;;;;;4988644;28;20168;-74
2023/10/02 11:10:16;;;;;;;15.50;6.38;;;18.70;99.90;;;;;;4991376;28;20274;-74
2023/10/02 11:12:56;;;;;;;15.75;6.90;;;18.50;99.90;;;;;;4973008;28;20643;-74
2023/10/02 11:15:47;;;;;;;18.42;7.57;;;18.80;99.90;;;;;;4972983;28;20674;-74
2023/10/02 11:18:20;;;;;;;19.90;7.85;;;18.50;99.90;;;;;;4973173;28;20195;-76
2023/10/02 11:20:51;;;;;;;17.30;7.85;;;18.60;99.90;;;;;;4980756;28;20246;-76
2023/10/02 11:23:37;;;;;;;19.77;7.97;;;18.80;99.90;;;;;;5004471;28;20258;-74
2023/10/02 11:26:11;;;;;;;18.02;7.78;;;18.60;99.90;;;;;;5006072;28;20657;-74
2023/10/02 11:28:38;;;;;;;19.20;7.03;;;18.80;99.90;;;;;;4992322;28;20215;-74
2023/10/02 11:31:45;;;;;;;21.08;8.15;;;18.80;99.90;;;;;;4992431;28;20599;-74
2023/10/02 11:34:11;;;;;;;19.95;7.88;;;18.80;99.90;;;;;;5008928;28;20188;-75
2023/10/02 11:36:41;;;;;;;23.15;7.88;;;18.80;99.90;;;;;;5011916;28;20171;-75
2023/10/02 11:39:16;;;;;;;24.85;9.30;;;18.70;99.90;;;;;;5004616;28;20170;-74
2023/10/02 11:41:42;;;;;;;19.38;8.02;;;18.70;99.90;;;;;;4996741;28;20206;-76
2023/10/02 11:44:10;;;;;;;24.70;8.15;;;18.70;99.90;;;;;;4992247;28;20179;-75
2023/10/02 11:46:36;;;;;;;20.75;7.80;;;18.90;99.90;;;;;;4992113;28;20171;-75
2023/10/02 11:49:03;;;;;;;28.40;8.88;;;18.70;99.90;;;;;;4991858;28;20214;-75
2023/10/02 11:51:29;;;;;;;17.02;7.65;;;18.90;99.90;;;;;;4992024;28;20172;-74
2023/10/02 11:53:56;;;;;;;18.20;7.40;;;19.00;99.90;;;;;;4991988;28;20306;-75
2023/10/02 11:56:23;;;;;;;17.90;7.65;;;19.20;99.90;;;;;;4991982;28;20178;-76
2023/10/02 11:58:52;;;;;;;18.55;6.78;;;19.40;99.90;;;;;;4991918;28;20717;-74
2023/10/02 12:01:19;;;;;;;20.30;7.32;;;19.30;99.90;;;;;;4992484;28;20179;-74
2023/10/02 12:03:45;;;;;;;18.67;6.95;;;19.30;99.90;;;;;;4972409;28;20254;-75
2023/10/02 12:06:14;;;;;;;16.67;7.15;;;19.30;99.90;;;;;;4972373;28;20710;-75
2023/10/02 12:08:40;;;;;;;23.45;8.95;;;19.60;99.90;;;;;;4973912;28;20227;-75
2023/10/02 12:11:08;;;;;;;23.63;8.10;;;19.20;99.90;;;;;;4991795;28;20274;-75
2023/10/02 12:13:34;;;;;;;22.10;7.45;;;18.90;99.90;;;;;;4991965;28;20183;-74
2023/10/02 12:16:02;;;;;;;15.65;7.13;;;19.00;99.90;;;;;;4991326;28;20167;-75
2023/10/02 12:18:28;;;;;;;22.85;7.07;;;19.20;99.90;;;;;;4989893;28;20238;-74
2023/10/02 12:20:55;;;;;;;22.75;7.18;;;19.40;99.90;;;;;;4991442;28;20249;-76
2023/10/02 12:23:21;;;;;;;14.55;7.05;;;19.30;99.90;;;;;;4991098;28;20178;-76
2023/10/02 12:25:49;;;;;;;16.05;6.45;;;19.50;99.90;;;;;;4991429;28;20258;-76
2023/10/02 12:28:15;;;;;;;13.82;7.03;;;;;;;;;;4990084;28;20935;-76
2023/10/02 12:30:41;;;;;;;20.77;7.25;;;19.80;99.90;;;;;;4989641;28;20171;-76
2023/10/02 12:33:09;;;;;;;21.15;7.40;;;19.40;99.90;;;;;;4991161;28;20190;-74
2023/10/02 12:35:36;;;;;;;17.05;7.53;;;19.00;99.90;;;;;;4991428;28;20194;-76
2023/10/02 12:38:03;;;;;;;19.17;7.15;;;19.40;99.90;;;;;;4989825;28;20167;-76
2023/10/02 12:40:31;;;;;;;14.90;6.15;;;19.50;99.90;;;;;;4991244;28;20526;-76
2023/10/02 12:43:01;;;;;;;14.38;5.70;;;19.70;99.90;;;;;;4989538;28;20222;-75
2023/10/02 12:45:35;;;;;;;12.20;5.68;;;19.50;99.90;;;;;;4991501;28;20183;-77
2023/10/02 12:48:08;;;;;;;14.65;5.65;;;19.50;99.90;;;;;;4990026;28;20213;-76
2023/10/02 12:50:38;;;;;;;12.05;5.13;;;19.50;99.90;;;;;;4986516;28;20682;-76
2023/10/02 12:53:04;;;;;;;10.68;4.80;;;19.50;99.90;;;;;;4989241;28;20245;-75
2023/10/02 12:55:36;;;;;;;14.10;5.97;;;19.30;99.90;;;;;;4979959;28;20550;-76
2023/10/02 12:58:04;;;;;;;13.90;5.90;;;19.50;99.90;;;;;;4971396;28;20192;-76
2023/10/02 13:00:31;;;;;;;10.73;6.05;;;19.10;99.90;;;;;;4985523;28;20274;-76
2023/10/02 13:02:58;;;;;;;12.52;5.40;;;18.70;99.90;;;;;;4981203;28;20219;-76
2023/10/02 13:05:25;;;;;;;12.85;5.82;;;19.00;99.90;;;;;;4978008;28;20241;-76
2023/10/02 13:07:55;;;;;;;12.18;5.63;;;18.90;99.90;;;;;;4990457;28;20291;-76
2023/10/02 13:10:23;;;;;;;10.45;5.05;;;18.80;99.90;;;;;;4990041;28;20258;-75
2023/10/02 13:12:49;;;;;;;11.45;4.70;;;19.00;99.90;;;;;;4990192;28;20270;-76
2023/10/02 13:15:15;;;;;;;8.60;5.32;;;;;;;;;;4992813;28;20202;-76
2023/10/02 13:17:41;;;;;;;8.70;4.55;;;19.20;99.90;;;;;;4993493;28;20218;-75
2023/10/02 13:20:09;;;;;;;8.60;4.50;;;18.80;99.90;;;;;;4994153;28;20257;-75
2023/10/02 13:22:36;;;;;;;6.60;3.53;;;19.20;99.90;;;;;;4994246;28;20634;-76
2023/10/02 13:25:04;;;;;;;5.68;3.13;;;;;;;;;;4993572;28;20175;-74
2023/10/02 13:27:33;;;;;;;6.13;2.85;;;18.80;99.90;;;;;;4993530;28;20657;-74
2023/10/02 13:29:59;;;;;;;6.13;3.00;;;18.90;99.90;;;;;;4993558;28;20246;-74
2023/10/02 13:32:26;;;;;;;5.65;3.17;;;19.10;99.90;;;;;;4993411;28;20175;-74
2023/10/02 13:34:54;;;;;;;5.53;2.72;;;18.60;99.90;;;;;;4994273;28;20167;-74
2023/10/02 13:37:20;;;;;;;4.75;3.00;;;19.00;99.90;;;;;;4994364;28;20258;-74
2023/10/02 13:39:47;;;;;;;5.53;2.90;;;18.90;99.90;;;;;;4993365;28;20266;-74
2023/10/02 13:42:14;;;;;;;4.80;2.38;;;18.90;99.90;;;;;;4994014;28;20215;-74
2023/10/02 13:44:40;;;;;;;3.95;2.28;;;18.90;99.90;;;;;;4993966;28;20175;-74
2023/10/02 13:47:05;;;;;;;4.22;2.33;;;18.70;99.90;;;;;;4994006;28;20636;-74
2023/10/02 13:49:31;;;;;;;4.75;2.10;;;18.80;99.90;;;;;;4994154;28;20242;-74
2023/10/02 13:51:57;;;;;;;9.10;2.50;;;18.80;99.90;;;;;;4993852;28;20163;-74
2023/10/02 13:54:22;;;;;;;6.25;1.98;;;19.30;99.90;;;;;;4993900;28;20645;-74
2023/10/02 13:56:48;;;;;;;3.67;1.95;;;19.10;99.90;;;;;;4992778;28;20191;-76
2023/10/02 13:59:14;;;;;;;7.82;2.70;;;19.20;99.90;;;;;;4993809;28;20180;-76